Time;durP1;ratioP1;P1;durP2;ratioP2;P2;SDS_P1;SDS_P2;PMS_P1;PMS_P2;Temp;Humidity;BMP_temperature;BMP_pressure;BME280_temperature;BME280_humidity;BME280_pressure;Samples;Min_cycle;Max_cycle;Signal;HPM_P1;HPM_P2
2022/04/24 00:01:30;;;;;;;6.80;4.00;;;;;;;13.49;68.25;91971.78;5056911;27;20509;-74
2022/04/24 00:03:57;;;;;;;4.40;3.93;;;;;;;13.51;68.01;91969.97;5057135;28;20215;-74
2022/04/24 00:06:24;;;;;;;3.80;3.47;;;;;;;13.45;67.96;91972.91;5057131;28;20532;-74
2022/04/24 00:08:53;;;;;;;3.60;2.97;;;;;;;13.67;67.39;91976.50;5056907;28;20657;-74
2022/04/24 00:11:20;;;;;;;2.83;2.63;;;;;;;14.78;62.71;91984.31;5057055;28;20592;-74
2022/04/24 00:13:48;;;;;;;3.50;3.20;;;;;;;13.44;67.35;91961.94;5056899;28;20667;-75
2022/04/24 00:16:15;;;;;;;3.27;2.97;;;;;;;13.12;68.11;91936.09;5058988;28;20553;-74
2022/04/24 00:18:42;;;;;;;3.20;2.90;;;;;;;13.27;68.17;91963.00;5059765;28;20564;-74
2022/04/24 00:21:10;;;;;;;3.27;3.07;;;;;;;13.42;67.35;91966.28;5058682;28;20657;-74
2022/04/24 00:23:37;;;;;;;6.93;4.00;;;;;;;13.46;67.36;91972.00;5058655;27;20608;-74
2022/04/24 00:26:06;;;;;;;6.87;4.10;;;;;;;13.43;67.18;91967.91;5058854;28;20544;-74
2022/04/24 00:28:33;;;;;;;3.70;3.50;;;;;;;13.09;68.13;91965.84;5059429;28;20200;-75
2022/04/24 00:31:00;;;;;;;3.10;2.90;;;;;;;12.96;68.93;91962.47;5058622;27;20540;-74
2022/04/24 00:33:27;;;;;;;11.93;2.90;;;;;;;12.85;69.62;91968.19;5058445;28;20614;-74
2022/04/24 00:35:55;;;;;;;6.63;2.87;;;;;;;12.80;69.59;91950.72;5058433;28;20577;-74
2022/04/24 00:38:22;;;;;;;3.33;2.53;;;;;;;13.08;68.77;91962.50;5058619;28;20661;-74
2022/04/24 00:40:49;;;;;;;2.83;2.27;;;;;;;13.24;68.43;91962.38;5058350;28;20261;-74
2022/04/24 00:43:20;;;;;;;3.07;2.77;;;;;;;13.49;67.38;91965.00;5058315;28;20653;-74
2022/04/24 00:45:48;;;;;;;6.53;2.67;;;;;;;13.33;67.99;91961.00;5058993;28;20600;-74
2022/04/24 00:48:15;;;;;;;2.27;2.17;;;;;;;13.39;67.82;91960.59;5058529;28;20190;-74
2022/04/24 00:50:43;;;;;;;2.87;2.67;;;;;;;13.38;67.57;91967.41;5057971;28;20479;-74
2022/04/24 00:53:11;;;;;;;2.87;2.57;;;;;;;13.40;67.75;91959.69;5058836;28;20507;-74
2022/04/24 00:55:39;;;;;;;2.70;2.50;;;;;;;13.50;67.45;91971.69;5058529;28;20549;-74
2022/04/24 00:58:06;;;;;;;4.03;3.37;;;;;;;13.68;66.82;91975.59;5059780;28;20628;-74
2022/04/24 01:00:35;;;;;;;2.70;2.60;;;;;;;13.84;66.12;91977.13;5057637;27;20535;-74
2022/04/24 01:03:02;;;;;;;2.27;2.17;;;;;;;13.65;66.12;91980.84;5057615;28;20228;-74
2022/04/24 01:05:30;;;;;;;5.57;1.97;;;;;;;13.38;66.31;91964.03;5057983;28;20585;-74
2022/04/24 01:07:57;;;;;;;2.77;2.50;;;;;;;13.35;67.03;91984.56;5058062;27;20569;-74
2022/04/24 01:10:24;;;;;;;5.00;1.93;;;;;;;13.28;67.65;91979.88;5057531;27;20596;-74
2022/04/24 01:12:52;;;;;;;2.33;1.63;;;;;;;13.15;67.44;91986.59;5057185;28;20228;-74
2022/04/24 01:15:19;;;;;;;4.37;1.50;;;;;;;13.24;67.29;91982.66;5057986;28;20661;-74
2022/04/24 01:17:47;;;;;;;2.53;2.33;;;;;;;13.16;67.71;91972.19;5058005;28;20608;-74
2022/04/24 01:20:21;;;;;;;2.00;1.90;;;;;;;13.26;67.06;91976.59;5057731;28;20635;-75
2022/04/24 01:22:48;;;;;;;4.93;2.00;;;;;;;13.25;66.61;91981.75;5057567;27;20243;-74
2022/04/24 01:25:16;;;;;;;2.20;2.10;;;;;;;13.35;66.44;91980.25;5058069;28;20536;-74
2022/04/24 01:27:43;;;;;;;2.40;2.17;;;;;;;13.39;66.76;91986.78;5057793;28;20215;-74
2022/04/24 01:30:11;;;;;;;4.30;2.60;;;;;;;13.27;66.76;91974.88;5057589;27;20512;-74
2022/04/24 01:32:39;;;;;;;3.50;3.30;;;;;;;13.13;67.04;91983.34;5058241;28;20185;-74
2022/04/24 01:35:07;;;;;;;9.37;4.90;;;;;;;13.51;65.37;91964.91;5057712;28;20679;-74
2022/04/24 01:37:36;;;;;;;4.10;3.80;;;;;;;14.86;61.15;92004.94;5058008;28;20654;-74
2022/04/24 01:40:04;;;;;;;3.53;2.90;;;;;;;15.16;59.25;92002.00;5057839;28;20573;-74
2022/04/24 01:42:31;;;;;;;4.47;2.67;;;;;;;13.79;62.44;91990.13;5057347;28;20509;-75
2022/04/24 01:44:58;;;;;;;3.50;2.63;;;;;;;13.13;65.57;91978.25;5057991;28;20572;-74
2022/04/24 01:47:28;;;;;;;2.20;2.10;;;;;;;12.66;68.27;91980.38;5058194;28;20647;-74
2022/04/24 01:49:55;;;;;;;2.50;2.13;;;;;;;12.52;68.73;91981.19;5058224;28;20588;-74
2022/04/24 01:52:22;;;;;;;3.50;1.90;;;;;;;12.64;68.34;91977.91;5057627;28;20193;-74
2022/04/24 01:54:51;;;;;;;2.60;2.50;;;;;;;12.77;68.45;91983.06;5057364;28;20526;-74
2022/04/24 01:57:18;;;;;;;2.70;2.50;;;;;;;12.59;68.76;91981.63;5057528;28;20256;-74
2022/04/24 01:59:45;;;;;;;3.13;1.93;;;;;;;12.75;67.91;91980.63;5057668;28;20543;-74
2022/04/24 02:02:13;;;;;;;1.90;1.80;;;;;;;12.81;67.60;91969.28;5056884;28;20714;-74
2022/04/24 02:04:40;;;;;;;1.17;1.17;;;;;;;13.02;66.44;91990.78;5056960;28;20447;-74
2022/04/24 02:07:07;;;;;;;2.00;1.90;;;;;;;13.00;65.90;91996.88;5057227;28;20483;-74
2022/04/24 02:09:35;;;;;;;2.63;1.77;;;;;;;12.97;66.29;91992.78;5057163;28;20608;-74
2022/04/24 02:12:04;;;;;;;2.73;2.10;;;;;;;13.05;66.79;91983.00;5056164;28;20549;-74
2022/04/24 02:14:32;;;;;;;1.63;1.53;;;;;;;12.94;66.41;91998.06;5056706;28;20427;-74
2022/04/24 02:17:00;;;;;;;2.70;1.90;;;;;;;12.77;66.86;91973.75;5057938;28;20193;-74
2022/04/24 02:19:27;;;;;;;1.50;1.40;;;;;;;12.66;67.56;91985.44;5056919;28;20450;-75
2022/04/24 02:21:54;;;;;;;5.50;1.80;;;;;;;12.46;68.66;91994.22;5056792;28;20225;-74
2022/04/24 02:24:21;;;;;;;4.27;1.90;;;;;;;12.11;69.73;91967.66;5056256;27;20208;-74
2022/04/24 02:26:48;;;;;;;1.93;1.83;;;;;;;12.35;69.29;91988.97;5057897;28;20512;-74
2022/04/24 02:29:18;;;;;;;2.43;2.33;;;;;;;12.54;68.77;91996.31;5056698;28;20197;-74
2022/04/24 02:31:45;;;;;;;2.70;2.37;;;;;;;12.51;68.43;91999.00;5056489;28;20189;-74
2022/04/24 02:34:13;;;;;;;2.60;2.50;;;;;;;12.60;68.05;91996.75;5056847;28;20584;-74
2022/04/24 02:36:40;;;;;;;1.83;1.73;;;;;;;12.63;67.85;92009.22;5057428;28;20465;-74
2022/04/24 02:39:07;;;;;;;2.23;1.67;;;;;;;12.70;67.76;92007.16;5056751;28;20752;-75
2022/04/24 02:41:34;;;;;;;2.13;2.03;;;;;;;12.65;67.81;92007.44;5057066;27;20551;-74
2022/04/24 02:44:02;;;;;;;2.13;2.03;;;;;;;12.64;67.87;92004.97;5056337;28;20281;-74
2022/04/24 02:46:30;;;;;;;1.17;1.17;;;;;;;12.80;66.83;92003.13;5057214;28;20189;-74
2022/04/24 02:48:57;;;;;;;2.07;1.97;;;;;;;12.39;67.32;91988.69;5056514;28;20532;-74
2022/04/24 02:51:25;;;;;;;3.03;2.23;;;;;;;12.47;68.12;92006.00;5056885;28;20543;-74
2022/04/24 02:53:52;;;;;;;3.07;1.57;;;;;;;12.27;68.42;91992.00;5055962;28;20572;-74
2022/04/24 02:56:19;;;;;;;1.20;1.20;;;;;;;11.96;69.42;91982.00;5056724;28;20573;-74
2022/04/24 02:58:48;;;;;;;1.47;1.37;;;;;;;12.10;69.38;92004.81;5056174;28;20512;-74
2022/04/24 03:01:15;;;;;;;3.53;2.07;;;;;;;12.65;68.17;92001.53;5056382;28;20563;-74
2022/04/24 03:03:45;;;;;;;14.90;2.57;;;;;;;12.93;66.43;92000.69;5055670;28;20272;-74
2022/04/24 03:06:12;;;;;;;2.83;2.63;;;;;;;12.98;66.01;92014.69;5056113;28;20461;-74
2022/04/24 03:08:40;;;;;;;3.90;3.53;;;;;;;13.10;65.65;92013.13;5056093;28;20567;-74
2022/04/24 03:11:08;;;;;;;3.80;3.47;;;;;;;12.05;68.97;92006.81;5056428;28;20584;-74
2022/04/24 03:13:35;;;;;;;8.10;3.50;;;;;;;12.42;67.89;92007.97;5055410;28;20786;-74
2022/04/24 03:16:02;;;;;;;3.27;3.03;;;;;;;12.65;66.39;92006.59;5056024;28;20545;-74
2022/04/24 03:18:30;;;;;;;3.10;2.90;;;;;;;11.95;69.04;92009.03;5055822;28;20192;-74
2022/04/24 03:20:58;;;;;;;3.57;2.40;;;;;;;11.76;70.86;92007.66;5056235;28;20477;-74
2022/04/24 03:23:26;;;;;;;3.47;3.30;;;;;;;11.64;71.31;92014.19;5055221;28;20697;-75
2022/04/24 03:25:53;;;;;;;2.73;2.53;;;;;;;11.50;71.79;92001.50;5055222;28;20212;-75
2022/04/24 03:28:20;;;;;;;3.63;3.37;;;;;;;11.59;72.08;92006.06;5055632;28;20601;-74
2022/04/24 03:30:47;;;;;;;2.73;2.53;;;;;;;11.68;71.70;92017.34;5056084;28;20574;-74
2022/04/24 03:33:15;;;;;;;3.70;3.50;;;;;;;11.80;70.75;92025.09;5055613;28;20258;-74
2022/04/24 03:35:42;;;;;;;11.67;3.20;;;;;;;11.69;71.13;92019.00;5055861;28;20188;-75
2022/04/24 03:38:11;;;;;;;3.33;3.13;;;;;;;11.87;70.91;92028.13;5055376;28;20462;-74
2022/04/24 03:40:39;;;;;;;4.03;3.73;;;;;;;11.85;70.38;92034.97;5056554;28;20193;-74
2022/04/24 03:43:06;;;;;;;12.40;4.53;;;;;;;12.13;69.87;92040.06;5055026;28;20547;-74
2022/04/24 03:45:33;;;;;;;13.57;4.60;;;;;;;12.08;69.85;92037.00;5055941;28;20196;-74
2022/04/24 03:48:01;;;;;;;5.27;4.87;;;;;;;12.19;69.13;92039.72;5055552;28;20461;-75
2022/04/24 03:50:28;;;;;;;5.63;5.33;;;;;;;12.81;66.71;92058.00;5055357;28;20600;-74
2022/04/24 03:52:55;;;;;;;17.63;7.13;;;;;;;12.64;66.51;92037.91;5055607;28;20592;-75
2022/04/24 03:55:24;;;;;;;15.17;8.40;;;;;;;12.89;66.25;92053.28;5055455;28;20622;-74
2022/04/24 03:57:51;;;;;;;40.53;14.97;;;;;;;12.64;66.34;92063.25;5055902;28;20628;-74
2022/04/24 04:00:19;;;;;;;43.30;17.43;;;;;;;12.81;65.63;92076.56;5055816;28;20600;-74
2022/04/24 04:02:50;;;;;;;40.37;15.43;;;;;;;12.84;65.71;92056.09;5055442;28;20225;-75
2022/04/24 04:05:17;;;;;;;27.00;13.03;;;;;;;12.40;67.04;92050.31;5055842;28;20576;-74
2022/04/24 04:07:44;;;;;;;25.50;13.07;;;;;;;12.30;68.10;92070.31;5055379;28;20657;-74
2022/04/24 04:10:12;;;;;;;11.73;5.23;;;;;;;11.99;69.29;92045.94;5055828;28;20260;-74
2022/04/24 04:12:41;;;;;;;7.10;4.93;;;;;;;12.22;69.37;92052.22;5055196;28;20225;-74
2022/04/24 04:15:11;;;;;;;7.37;6.73;;;;;;;12.28;68.67;92059.44;5055319;28;20605;-74
2022/04/24 04:17:38;;;;;;;7.70;6.87;;;;;;;12.33;68.81;92060.00;5055355;28;20491;-74
2022/04/24 04:20:11;;;;;;;13.83;7.00;;;;;;;12.49;68.71;92057.41;5054967;28;20601;-74
2022/04/24 04:22:51;;;;;;;13.43;8.10;;;;;;;12.72;68.44;92069.53;5054743;28;20635;-74
2022/04/24 04:25:18;;;;;;;14.00;7.17;;;;;;;12.61;68.94;92061.75;5055280;28;20517;-74
2022/04/24 04:27:47;;;;;;;8.77;7.77;;;;;;;12.83;68.77;92069.69;5054958;28;20466;-74
2022/04/24 04:30:15;;;;;;;11.33;5.90;;;;;;;12.63;69.57;92062.44;5055448;28;20197;-74
2022/04/24 04:32:42;;;;;;;6.43;5.93;;;;;;;12.65;69.12;92054.75;5055099;28;20185;-74
2022/04/24 04:35:13;;;;;;;11.40;6.97;;;;;;;13.00;68.21;92065.31;5054902;28;20665;-74
2022/04/24 04:37:40;;;;;;;9.23;6.53;;;;;;;12.59;70.24;92062.72;5056249;28;20197;-74
2022/04/24 04:40:11;;;;;;;7.30;6.60;;;;;;;13.48;67.73;92075.00;5059331;28;20311;-76
2022/04/24 04:42:40;;;;;;;7.77;7.17;;;;;;;13.64;66.29;92073.13;5058773;28;20643;-72
2022/04/24 04:45:10;;;;;;;10.20;6.93;;;;;;;13.72;66.09;92075.19;5055333;28;20197;-74
2022/04/24 04:47:38;;;;;;;9.00;7.07;;;;;;;13.55;66.08;92057.69;5056410;28;20533;-75
2022/04/24 04:50:06;;;;;;;7.57;6.90;;;;;;;13.80;66.13;92074.72;5055880;28;20292;-74
2022/04/24 04:52:34;;;;;;;8.53;7.67;;;;;;;13.48;66.95;92074.19;5057664;28;20450;-74
2022/04/24 04:55:02;;;;;;;7.70;6.97;;;;;;;13.43;67.62;92083.81;5057030;28;20685;-74
2022/04/24 04:57:29;;;;;;;13.13;8.23;;;;;;;13.62;66.90;92079.25;5057662;28;20212;-74
2022/04/24 04:59:57;;;;;;;7.77;6.80;;;;;;;13.51;67.76;92086.72;5055842;28;20619;-74
2022/04/24 05:02:25;;;;;;;16.23;9.47;;;;;;;13.78;67.11;92089.22;5057216;28;20645;-74
2022/04/24 05:04:53;;;;;;;15.70;9.70;;;;;;;13.64;67.51;92082.47;5056962;28;20621;-75
2022/04/24 05:07:20;;;;;;;19.50;11.03;;;;;;;13.75;67.53;92079.25;5057178;28;20205;-74
2022/04/24 05:09:47;;;;;;;18.13;11.13;;;;;;;14.57;64.39;92096.81;5057726;28;20604;-75
2022/04/24 05:12:14;;;;;;;17.83;10.00;;;;;;;13.83;66.56;92077.88;5056818;28;20196;-75
2022/04/24 05:14:42;;;;;;;15.33;10.20;;;;;;;13.83;66.66;92074.50;5057378;28;20514;-75
2022/04/24 05:17:09;;;;;;;16.87;11.23;;;;;;;13.56;67.08;92022.06;5056889;28;20492;-74
2022/04/24 05:19:38;;;;;;;12.87;10.90;;;;;;;14.17;66.45;92073.16;5056572;28;20228;-75
2022/04/24 05:22:05;;;;;;;18.17;10.93;;;;;;;14.32;65.70;92051.81;5056856;28;20483;-74
2022/04/24 05:24:33;;;;;;;17.50;10.03;;;;;;;14.37;65.36;92070.16;5056506;28;20618;-75
2022/04/24 05:27:01;;;;;;;16.30;9.23;;;;;;;14.15;64.53;92007.22;5056951;28;20572;-75
2022/04/24 05:29:29;;;;;;;9.20;8.27;;;;;;;14.57;64.69;92059.50;5056490;28;20474;-74
2022/04/24 05:31:56;;;;;;;17.87;9.27;;;;;;;14.76;64.34;92072.59;5056555;28;20576;-75
2022/04/24 05:34:23;;;;;;;15.70;9.43;;;;;;;14.72;64.41;92066.09;5056078;28;20497;-76
2022/04/24 05:36:52;;;;;;;15.97;8.73;;;;;;;14.50;64.42;91998.09;5056069;28;20542;-76
2022/04/24 05:39:20;;;;;;;11.40;9.00;;;;;;;14.84;64.32;92069.53;5056698;28;20303;-74
2022/04/24 05:41:47;;;;;;;14.20;9.67;;;;;;;14.72;64.53;92052.56;5057217;28;20569;-75
2022/04/24 05:44:14;;;;;;;17.33;9.73;;;;;;;14.91;63.85;92053.78;5055877;28;20570;-74
2022/04/24 05:46:41;;;;;;;12.23;8.17;;;;;;;14.82;64.25;92044.19;5056318;28;20608;-74
2022/04/24 05:49:08;;;;;;;18.10;6.97;;;;;;;15.06;63.81;92072.25;5053963;28;20519;-74
2022/04/24 05:51:36;;;;;;;8.57;6.77;;;;;;;14.81;64.88;92062.13;5055992;28;20577;-75
2022/04/24 05:54:05;;;;;;;6.57;5.97;;;;;;;15.38;64.03;92061.59;5055358;28;20630;-74
2022/04/24 05:56:32;;;;;;;10.90;5.80;;;;;;;15.02;64.00;92062.41;5054312;28;20570;-75
2022/04/24 05:58:59;;;;;;;9.03;5.60;;;;;;;15.42;63.57;92056.19;5055343;28;20569;-76
2022/04/24 06:01:27;;;;;;;10.27;6.23;;;;;;;15.66;63.20;92057.00;5054497;27;20253;-75
2022/04/24 06:03:54;;;;;;;6.97;6.27;;;;;;;15.86;62.22;92042.88;5055244;28;20601;-75
2022/04/24 06:06:21;;;;;;;7.40;6.07;;;;;;;15.85;62.07;92038.69;5055370;28;20596;-75
2022/04/24 06:08:49;;;;;;;8.10;6.27;;;;;;;15.91;61.78;92022.16;5054520;28;20656;-75
2022/04/24 06:11:19;;;;;;;7.37;6.57;;;;;;;16.57;60.96;92057.16;5055800;28;20196;-74
2022/04/24 06:13:47;;;;;;;4.57;4.30;;;;;;;16.04;61.19;92016.06;5053761;27;20732;-74
2022/04/24 06:16:15;;;;;;;8.67;5.63;;;;;;;16.55;59.87;92057.31;5052240;28;20569;-74
2022/04/24 06:18:42;;;;;;;6.03;5.53;;;;;;;16.91;59.09;92055.47;5055673;28;20227;-75
2022/04/24 06:21:10;;;;;;;5.27;4.83;;;;;;;16.58;60.03;92041.75;5054656;28;20653;-75
2022/04/24 06:23:37;;;;;;;9.23;6.33;;;;;;;16.47;60.52;92048.56;5055104;28;20640;-73
2022/04/24 06:26:04;;;;;;;7.70;6.90;;;;;;;16.45;60.78;92033.38;5055013;28;20495;-74
2022/04/24 06:28:33;;;;;;;7.40;6.77;;;;;;;16.71;60.50;92036.59;5054282;28;20600;-73
2022/04/24 06:31:00;;;;;;;6.30;5.90;;;;;;;16.99;59.19;92033.56;5054109;28;20612;-73
2022/04/24 06:33:27;;;;;;;5.17;4.70;;;;;;;16.92;59.45;92037.50;5054111;28;20497;-74
2022/04/24 06:35:55;;;;;;;11.43;6.53;;;;;;;17.05;59.14;92036.56;5053862;28;20193;-74
2022/04/24 06:38:24;;;;;;;8.87;4.90;;;;;;;17.11;59.29;92036.94;5054109;28;20500;-74
2022/04/24 06:40:51;;;;;;;10.57;4.70;;;;;;;17.39;58.94;92040.72;5054929;28;20588;-73
2022/04/24 06:43:18;;;;;;;4.33;3.73;;;;;;;17.69;58.24;92037.50;5054510;28;20619;-74
2022/04/24 06:45:47;;;;;;;4.57;4.27;;;;;;;17.31;57.56;92041.28;5054578;28;20537;-74
2022/04/24 06:48:16;;;;;;;7.97;4.50;;;;;;;17.25;58.51;92036.66;5053357;28;20448;-74
2022/04/24 06:50:45;;;;;;;8.10;3.70;;;;;;;17.46;58.18;92023.16;5054152;28;20568;-76
2022/04/24 06:53:13;;;;;;;5.47;4.20;;;;;;;17.48;57.99;92032.31;5054809;28;20612;-76
2022/04/24 06:55:42;;;;;;;3.97;3.67;;;;;;;17.63;58.34;92030.34;5054519;28;20480;-76
2022/04/24 06:58:11;;;;;;;4.03;3.60;;;;;;;17.95;57.27;92022.66;5054338;28;20189;-75
2022/04/24 07:00:41;;;;;;;4.57;4.23;;;;;;;18.24;56.30;92046.72;5054175;28;20534;-75
2022/04/24 07:03:14;;;;;;;3.77;3.57;;;;;;;18.49;54.97;92043.75;5054400;28;20562;-74
2022/04/24 07:05:42;;;;;;;4.07;3.87;;;;;;;18.41;54.43;92038.47;5054870;28;20600;-76
2022/04/24 07:08:09;;;;;;;2.35;2.25;;;;;;;18.65;54.00;92034.88;5053533;28;20578;-75
2022/04/24 07:10:37;;;;;;;4.28;2.72;;;;;;;18.47;54.59;92032.03;5055561;28;20197;-75
2022/04/24 07:13:05;;;;;;;3.07;2.87;;;;;;;18.78;54.43;92030.34;5053764;28;20620;-74
2022/04/24 07:15:34;;;;;;;2.33;2.22;;;;;;;18.68;54.50;92026.94;5054373;28;20580;-74
2022/04/24 07:18:02;;;;;;;5.03;3.60;;;;;;;19.14;53.39;92031.56;5049615;28;20212;-75
2022/04/24 07:20:31;;;;;;;5.40;4.68;;;;;;;19.30;53.44;92037.00;5050847;28;20262;-75
2022/04/24 07:23:01;;;;;;;3.20;2.60;;;;;;;19.29;52.75;92036.19;5050721;28;20564;-75
2022/04/24 07:25:33;;;;;;;2.50;2.35;;;;;;;19.05;53.78;92015.22;5052423;28;20228;-76
2022/04/24 07:28:00;;;;;;;2.42;2.17;;;;;;;19.07;53.57;92025.34;5050963;28;20201;-76
2022/04/24 07:30:27;;;;;;;11.13;2.72;;;;;;;19.08;53.85;92003.91;5050224;28;20250;-75
2022/04/24 07:32:56;;;;;;;1.77;1.67;;;;;;;19.59;51.96;92029.41;5053792;28;20189;-75
2022/04/24 07:35:25;;;;;;;1.83;1.73;;;;;;;19.90;50.92;92028.38;5057463;28;20555;-76
2022/04/24 07:37:55;;;;;;;3.35;1.90;;;;;;;20.13;50.27;92026.34;5054948;28;20240;-76
2022/04/24 07:40:23;;;;;;;1.95;1.83;;;;;;;19.63;51.54;92020.50;5054876;28;20619;-76
2022/04/24 07:42:54;;;;;;;2.25;2.15;;;;;;;19.77;51.77;92020.16;5052759;28;20603;-75
2022/04/24 07:45:23;;;;;;;1.83;1.73;;;;;;;19.83;50.03;92024.72;5041150;28;20220;-76
2022/04/24 07:47:51;;;;;;;3.05;2.22;;;;;;;19.62;49.56;92026.56;5051972;28;20213;-75
2022/04/24 07:50:21;;;;;;;5.07;1.70;;;;;;;19.93;48.97;92035.00;5051662;28;20228;-76
2022/04/24 07:52:48;;;;;;;1.77;1.67;;;;;;;20.06;48.60;92032.94;5052566;28;20333;-75
2022/04/24 07:55:18;;;;;;;2.05;1.70;;;;;;;20.01;48.76;92022.28;5051366;28;20485;-76
2022/04/24 07:57:46;;;;;;;2.38;2.00;;;;;;;19.90;48.94;91997.59;5052048;28;20557;-76
2022/04/24 08:00:15;;;;;;;2.03;1.60;;;;;;;20.21;49.07;92011.09;5050438;28;20624;-74
2022/04/24 08:02:47;;;;;;;3.08;2.75;;;;;;;20.24;48.11;92001.34;5051564;28;20596;-75
2022/04/24 08:05:23;;;;;;;3.28;1.90;;;;;;;20.49;47.50;92012.84;5050325;28;20604;-75
2022/04/24 08:07:50;;;;;;;1.60;1.50;;;;;;;20.48;46.06;92026.59;5052687;28;20670;-73
2022/04/24 08:10:20;;;;;;;1.55;1.45;;;;;;;20.96;45.18;92028.22;5053059;28;20269;-74
2022/04/24 08:12:47;;;;;;;1.13;1.00;;;;;;;20.89;46.11;92020.28;5050677;28;20236;-74
2022/04/24 08:15:16;;;;;;;1.40;1.30;;;;;;;21.01;44.02;92028.63;5054135;28;20272;-72
2022/04/24 08:17:44;;;;;;;3.92;2.08;;;;;;;21.23;44.48;92012.88;5054618;28;20564;-73
2022/04/24 08:20:14;;;;;;;3.33;1.73;;;;;;;21.29;43.40;92017.44;5051120;28;20515;-72
2022/04/24 08:22:42;;;;;;;1.42;1.33;;;;;;;21.29;43.08;92022.59;5055584;28;20456;-73
2022/04/24 08:25:11;;;;;;;1.70;1.55;;;;;;;21.32;42.60;92019.72;5056256;28;20620;-73
2022/04/24 08:27:40;;;;;;;1.67;1.48;;;;;;;21.21;42.14;92019.91;5056357;27;20566;-73
2022/04/24 08:30:11;;;;;;;1.70;1.60;;;;;;;21.34;42.61;92015.25;5055417;28;20522;-72
2022/04/24 08:32:39;;;;;;;3.85;1.58;;;;;;;21.28;42.38;91991.88;5053977;28;20328;-72
2022/04/24 08:35:09;;;;;;;1.70;1.70;;;;;;;21.46;43.31;91985.81;5057036;28;20650;-75
2022/04/24 08:37:36;;;;;;;1.55;1.45;;;;;;;21.45;44.60;91975.69;5053917;28;20450;-74
2022/04/24 08:40:06;;;;;;;1.25;1.25;;;;;;;21.52;42.34;91972.38;5054441;28;20479;-73
2022/04/24 08:42:34;;;;;;;3.88;1.10;;;;;;;21.82;42.71;91986.66;5055652;28;20541;-74
2022/04/24 08:45:04;;;;;;;1.75;1.65;;;;;;;22.52;40.47;91997.88;5056755;28;20708;-72
2022/04/24 08:47:32;;;;;;;1.15;1.15;;;;;;;22.69;39.64;92014.22;5056129;28;20579;-73
2022/04/24 08:50:01;;;;;;;0.90;0.90;;;;;;;22.82;40.13;91988.88;5057149;28;20542;-73
2022/04/24 08:52:30;;;;;;;0.93;0.93;;;;;;;23.08;39.46;91987.09;5056729;28;20557;-73
2022/04/24 08:54:58;;;;;;;3.40;1.08;;;;;;;23.33;39.39;91969.94;5055503;28;20521;-74
2022/04/24 08:57:27;;;;;;;1.50;1.48;;;;;;;23.71;37.25;92003.94;5050842;27;20478;-74
2022/04/24 08:59:55;;;;;;;0.95;0.95;;;;;;;23.82;35.96;92014.78;5055231;28;20481;-75
2022/04/24 09:02:24;;;;;;;1.20;1.17;;;;;;;24.73;36.52;91987.03;5055650;27;20576;-72
2022/04/24 09:04:53;;;;;;;0.93;0.93;;;;;;;25.13;36.25;91991.34;5052876;28;20571;-73
2022/04/24 09:07:20;;;;;;;1.42;1.33;;;;;;;23.82;36.85;91973.50;5057635;28;20532;-73
2022/04/24 09:09:49;;;;;;;3.28;1.08;;;;;;;23.73;35.76;91984.75;5056126;27;20227;-73
2022/04/24 09:12:18;;;;;;;1.88;1.10;;;;;;;24.25;35.08;91979.34;5054508;28;20254;-72
2022/04/24 09:14:49;;;;;;;1.25;1.25;;;;;;;25.03;34.12;91979.59;5046419;28;20235;-73
2022/04/24 09:17:21;;;;;;;1.30;1.20;;;;;;;25.38;33.60;91978.31;5052755;28;20214;-73
2022/04/24 09:19:51;;;;;;;1.17;1.17;;;;;;;25.74;33.98;91986.44;5055043;28;20574;-73
2022/04/24 09:22:19;;;;;;;1.45;1.20;;;;;;;26.12;33.86;91962.25;5054781;28;20627;-73
2022/04/24 09:24:49;;;;;;;0.93;0.93;;;;;;;25.83;32.90;91938.81;5053517;28;20528;-72
2022/04/24 09:27:24;;;;;;;1.20;1.20;;;;;;;26.45;33.70;91951.63;5055389;28;20552;-73
2022/04/24 09:29:54;;;;;;;0.90;0.90;;;;;;;26.52;32.33;91955.13;5055764;28;20200;-72
2022/04/24 09:32:22;;;;;;;1.58;1.20;;;;;;;26.45;32.19;91960.22;5054918;28;20473;-74
2022/04/24 09:34:52;;;;;;;1.15;1.10;;;;;;;26.48;31.85;91965.03;5052031;28;20193;-74
2022/04/24 09:37:20;;;;;;;1.33;1.23;;;;;;;26.69;32.78;91959.19;5056405;28;20549;-75
2022/04/24 09:39:48;;;;;;;5.22;1.52;;;;;;;27.09;32.71;91955.41;5056177;28;20481;-74
2022/04/24 09:42:17;;;;;;;1.60;1.50;;;;;;;27.26;31.89;91943.06;5056286;27;20661;-74
2022/04/24 09:44:46;;;;;;;0.90;0.90;;;;;;;27.54;30.85;91964.78;5054829;28;20498;-74
2022/04/24 09:47:14;;;;;;;1.27;1.27;;;;;;;27.37;31.78;91955.56;5056091;28;20513;-74
2022/04/24 09:49:42;;;;;;;1.10;1.05;;;;;;;27.36;31.67;91933.19;5056622;28;20558;-74
2022/04/24 09:52:12;;;;;;;2.92;1.00;;;;;;;27.40;30.86;91950.00;5056537;28;20566;-74
2022/04/24 09:54:42;;;;;;;3.33;1.20;;;;;;;27.22;30.75;91948.59;5054958;28;20569;-73
2022/04/24 09:57:11;;;;;;;2.22;1.30;;;;;;;27.20;31.52;91884.91;5054824;28;20585;-75
2022/04/24 09:59:39;;;;;;;2.78;1.10;;;;;;;27.60;31.33;91918.13;5054560;28;20554;-75
2022/04/24 10:02:07;;;;;;;2.50;1.35;;;;;;;27.87;30.78;91929.59;5054149;28;20579;-74
2022/04/24 10:04:38;;;;;;;1.70;1.60;;;;;;;28.12;30.68;91932.63;5055542;28;20549;-75
2022/04/24 10:07:10;;;;;;;1.95;1.48;;;;;;;28.06;30.22;91938.56;5049116;28;20556;-72
2022/04/24 10:09:40;;;;;;;1.45;1.45;;;;;;;28.18;29.82;91931.09;5055687;28;20581;-73
2022/04/24 10:12:10;;;;;;;1.30;1.15;;;;;;;27.68;30.54;91921.59;5055934;28;20547;-73
2022/04/24 10:14:44;;;;;;;2.45;1.60;;;;;;;28.23;30.43;91902.75;5053695;28;20215;-74
2022/04/24 10:17:48;;;;;;;2.15;1.38;;;;;;;28.33;29.58;91934.44;5054883;28;20605;-73
2022/04/24 10:20:37;;;;;;;3.58;1.50;;;;;;;28.80;29.87;91921.63;5050962;28;20214;-73
2022/04/24 10:23:05;;;;;;;2.60;1.38;;;;;;;29.40;29.57;91938.41;5044115;28;20554;-74
2022/04/24 10:25:38;;;;;;;1.10;1.10;;;;;;;30.53;28.37;91944.72;5052403;28;20617;-74
2022/04/24 10:28:13;;;;;;;1.20;1.20;;;;;;;31.53;25.35;91954.81;5053499;28;20628;-73
2022/04/24 10:30:41;;;;;;;1.20;1.17;;;;;;;32.59;24.23;91962.94;5052867;28;20600;-74
2022/04/24 10:33:22;;;;;;;1.00;1.00;;;;;;;33.58;23.10;91976.75;5045702;28;20577;-74
2022/04/24 10:35:51;;;;;;;0.98;0.98;;;;;;;34.47;22.98;91965.59;5055030;28;20580;-74
2022/04/24 10:38:20;;;;;;;1.33;0.98;;;;;;;34.02;22.62;91972.25;5056079;28;20600;-74
2022/04/24 10:41:03;;;;;;;2.25;1.00;;;;;;;34.62;23.17;91946.00;5055425;28;20291;-74
2022/04/24 10:43:38;;;;;;;1.20;1.20;;;;;;;34.27;23.69;91944.09;5053031;28;20543;-74
2022/04/24 10:46:20;;;;;;;0.95;0.95;;;;;;;34.91;23.56;91953.03;5048295;28;20589;-75
2022/04/24 10:48:48;;;;;;;2.80;1.55;;;;;;;33.69;24.78;91923.66;5045093;28;20266;-74
2022/04/24 10:51:28;;;;;;;1.10;1.10;;;;;;;33.99;24.61;91922.88;5042377;28;20621;-77
2022/04/24 10:53:58;;;;;;;1.20;1.10;;;;;;;35.76;23.33;91934.16;5044234;28;20560;-73
2022/04/24 10:56:29;;;;;;;2.05;1.23;;;;;;;35.47;23.01;91946.41;5044459;28;20465;-73
2022/04/24 10:59:07;;;;;;;4.05;1.33;;;;;;;34.35;25.15;91917.56;5045254;28;20558;-74
2022/04/24 11:01:44;;;;;;;1.20;1.10;;;;;;;34.14;25.08;91933.78;5045653;28;20504;-74
2022/04/24 11:04:14;;;;;;;2.50;1.50;;;;;;;34.53;24.71;91935.81;5041639;28;20541;-75
2022/04/24 11:06:53;;;;;;;1.75;1.00;;;;;;;33.92;25.38;91932.63;5045485;28;20201;-73
2022/04/24 11:09:21;;;;;;;1.33;1.25;;;;;;;33.60;26.32;91913.66;5044992;28;20573;-74
2022/04/24 11:11:52;;;;;;;0.98;0.98;;;;;;;33.80;24.22;91937.84;5047173;28;20552;-74
2022/04/24 11:14:21;;;;;;;1.98;1.88;;;;;;;34.12;24.17;91931.38;5053863;28;20620;-74
2022/04/24 11:16:50;;;;;;;1.20;1.10;;;;;;;32.68;25.61;91914.56;5054391;28;20585;-74
2022/04/24 11:19:27;;;;;;;1.15;1.15;;;;;;;31.96;25.91;91918.47;5051676;28;20628;-75
2022/04/24 11:21:58;;;;;;;1.20;1.20;;;;;;;32.01;27.28;91898.53;5053708;28;20185;-73
2022/04/24 11:24:26;;;;;;;1.02;1.02;;;;;;;31.09;26.79;91909.38;5053376;28;20633;-74
2022/04/24 11:26:55;;;;;;;4.40;1.45;;;;;;;31.13;28.14;91888.88;5055103;28;20543;-74
2022/04/24 11:29:23;;;;;;;1.10;1.10;;;;;;;31.04;28.32;91887.50;5054833;28;20588;-75
2022/04/24 11:31:51;;;;;;;1.50;1.40;;;;;;;30.57;28.57;91870.28;5053403;28;20445;-73
2022/04/24 11:34:20;;;;;;;1.40;1.40;;;;;;;30.91;29.47;91884.88;5054550;28;20484;-73
2022/04/24 11:36:48;;;;;;;3.35;1.63;;;;;;;30.65;28.23;91865.66;5051894;28;20549;-74
2022/04/24 11:39:15;;;;;;;2.13;1.35;;;;;;;30.60;27.56;91869.88;5037591;28;20574;-73